Time;durP1;ratioP1;P1;durP2;ratioP2;P2;SDS_P1;SDS_P2;PMS_P1;PMS_P2;Temp;Humidity;BMP_temperature;BMP_pressure;BME280_temperature;BME280_humidity;BME280_pressure;Samples;Min_cycle;Max_cycle;Signal;HPM_P1;HPM_P2
2022/05/25 00:02:06;;;;;;;1.23;1.13;;;13.50;68.50;;;;;;960753;146;27402;-76
2022/05/25 00:04:32;;;;;;;0.93;0.93;;;13.50;68.50;;;;;;959942;148;27388;-76
2022/05/25 00:06:59;;;;;;;1.83;1.47;;;13.50;68.60;;;;;;959999;147;27465;-76
2022/05/25 00:09:26;;;;;;;1.00;1.00;;;13.50;68.60;;;;;;961154;148;27359;-76
2022/05/25 00:11:53;;;;;;;1.00;1.00;;;13.60;68.90;;;;;;960169;148;27325;-76
2022/05/25 00:14:19;;;;;;;1.63;0.97;;;13.60;68.90;;;;;;960695;148;27414;-76
2022/05/25 00:16:45;;;;;;;2.10;1.00;;;13.60;69.10;;;;;;960161;148;27328;-76
2022/05/25 00:21:57;;;;;;;1.07;0.97;;;13.60;69.70;;;;;;961948;148;27834;-76
2022/05/25 00:24:23;;;;;;;1.10;1.10;;;13.60;69.20;;;;;;960817;148;27418;-76
2022/05/25 00:26:50;;;;;;;0.97;0.90;;;13.60;69.50;;;;;;961294;148;27287;-76
2022/05/25 00:29:16;;;;;;;1.20;1.10;;;13.70;69.60;;;;;;960131;148;27427;-76
2022/05/25 00:31:43;;;;;;;1.17;1.10;;;13.70;69.60;;;;;;960374;148;27392;-76
2022/05/25 00:34:09;;;;;;;1.63;1.30;;;13.70;69.50;;;;;;960582;148;27499;-76
2022/05/25 00:36:36;;;;;;;1.50;1.20;;;13.70;69.70;;;;;;960713;148;27387;-77
2022/05/25 00:39:04;;;;;;;1.23;1.20;;;13.70;69.60;;;;;;962382;148;27874;-76
2022/05/25 00:41:29;;;;;;;1.37;1.20;;;13.70;69.60;;;;;;960988;148;27382;-76
2022/05/25 00:43:56;;;;;;;1.60;1.43;;;13.70;69.60;;;;;;961331;148;27377;-77
2022/05/25 00:46:22;;;;;;;1.40;1.30;;;13.70;69.60;;;;;;961124;147;27327;-76
2022/05/25 00:48:52;;;;;;;1.37;1.27;;;13.70;69.60;;;;;;960924;148;27336;-76
2022/05/25 00:51:21;;;;;;;2.60;1.33;;;13.70;69.60;;;;;;949570;148;27327;-76
2022/05/25 00:53:48;;;;;;;1.10;1.10;;;13.80;70.30;;;;;;954672;149;27268;-76
2022/05/25 00:56:15;;;;;;;1.50;1.40;;;13.70;69.80;;;;;;954404;149;27430;-76
2022/05/25 00:58:41;;;;;;;1.30;1.20;;;13.80;69.90;;;;;;954932;149;27408;-76
2022/05/25 01:01:08;;;;;;;1.33;1.27;;;13.80;70.00;;;;;;955285;149;27359;-76
2022/05/25 01:03:34;;;;;;;2.57;1.50;;;13.70;69.90;;;;;;956068;149;27295;-76
2022/05/25 01:06:16;;;;;;;2.43;1.30;;;13.80;70.00;;;;;;954195;149;27297;-76
2022/05/25 01:08:48;;;;;;;2.20;1.40;;;13.80;70.00;;;;;;951346;149;27341;-76
2022/05/25 01:11:39;;;;;;;2.47;1.50;;;13.70;70.10;;;;;;955554;148;27437;-76
2022/05/25 01:14:11;;;;;;;1.63;1.53;;;13.80;70.20;;;;;;956288;148;27779;-76
2022/05/25 01:16:53;;;;;;;1.50;1.40;;;13.70;70.00;;;;;;954462;149;27242;-76
2022/05/25 01:19:31;;;;;;;2.80;1.50;;;13.70;70.10;;;;;;956160;148;27323;-76
2022/05/25 01:22:13;;;;;;;1.47;1.30;;;13.70;70.10;;;;;;955770;149;27264;-77
2022/05/25 01:24:58;;;;;;;1.50;1.40;;;13.70;70.20;;;;;;953902;146;27895;-76
2022/05/25 01:27:36;;;;;;;1.43;1.33;;;13.70;70.40;;;;;;955984;149;27721;-77
2022/05/25 01:30:09;;;;;;;2.83;1.50;;;13.70;70.30;;;;;;922779;149;27313;-76
2022/05/25 01:33:00;;;;;;;1.47;1.37;;;13.60;70.30;;;;;;951388;149;27372;-76
2022/05/25 01:35:29;;;;;;;1.10;1.03;;;13.60;70.50;;;;;;955087;149;27335;-76
2022/05/25 01:37:58;;;;;;;1.60;1.50;;;13.60;70.50;;;;;;954937;149;27405;-76
2022/05/25 01:40:34;;;;;;;1.50;1.40;;;13.60;70.70;;;;;;954854;149;27331;-76
2022/05/25 01:43:00;;;;;;;1.83;1.50;;;13.50;70.80;;;;;;954816;149;27308;-76
2022/05/25 01:45:29;;;;;;;1.40;1.30;;;13.60;71.00;;;;;;953120;149;27263;-76
2022/05/25 01:47:54;;;;;;;1.40;1.30;;;13.50;71.10;;;;;;954835;149;27281;-76
2022/05/25 01:50:20;;;;;;;2.33;1.40;;;13.50;71.10;;;;;;954590;148;27391;-76
2022/05/25 01:52:47;;;;;;;1.60;1.47;;;13.50;71.30;;;;;;961405;148;27391;-76
2022/05/25 01:55:13;;;;;;;2.50;1.57;;;13.50;71.40;;;;;;960755;147;27436;-76
2022/05/25 01:57:41;;;;;;;1.50;1.40;;;13.50;71.60;;;;;;960204;148;27253;-76
2022/05/25 02:00:06;;;;;;;4.60;1.40;;;13.40;71.50;;;;;;960813;148;27878;-76
2022/05/25 02:05:18;;;;;;;2.00;1.80;;;13.30;71.70;;;;;;960911;148;27440;-77
2022/05/25 02:07:59;;;;;;;1.90;1.70;;;13.30;71.80;;;;;;961938;148;27334;-76
2022/05/25 02:10:28;;;;;;;1.80;1.60;;;13.30;72.00;;;;;;960133;148;27702;-76
2022/05/25 02:13:07;;;;;;;1.97;1.40;;;13.20;72.00;;;;;;961078;148;27200;-75
2022/05/25 02:15:48;;;;;;;1.47;1.37;;;13.20;72.10;;;;;;960100;148;27355;-76
2022/05/25 02:18:17;;;;;;;1.60;1.43;;;13.20;72.20;;;;;;961010;148;27372;-75
2022/05/25 02:20:56;;;;;;;2.10;1.40;;;13.10;72.10;;;;;;960119;148;27806;-76
2022/05/25 02:23:40;;;;;;;1.20;1.20;;;13.10;72.40;;;;;;959940;148;27323;-76
2022/05/25 02:26:07;;;;;;;1.90;1.63;;;13.10;72.40;;;;;;961369;148;27322;-76
2022/05/25 02:28:39;;;;;;;1.70;1.60;;;13.00;72.50;;;;;;959658;148;27302;-75
2022/05/25 02:31:03;;;;;;;1.47;1.37;;;13.00;72.60;;;;;;960124;148;27326;-75
2022/05/25 02:33:32;;;;;;;1.60;1.50;;;12.90;72.70;;;;;;960629;148;27369;-76
2022/05/25 02:35:59;;;;;;;1.57;1.47;;;12.90;72.90;;;;;;958982;148;27478;-75
2022/05/25 02:38:25;;;;;;;1.70;1.60;;;12.90;73.10;;;;;;961017;148;27320;-75
2022/05/25 02:40:52;;;;;;;1.77;1.67;;;12.80;73.40;;;;;;961085;148;27260;-75
2022/05/25 02:43:18;;;;;;;1.47;1.33;;;12.80;73.40;;;;;;958616;148;27840;-75
2022/05/25 02:45:46;;;;;;;1.70;1.50;;;12.70;73.50;;;;;;960408;148;27402;-75
2022/05/25 02:48:12;;;;;;;1.40;1.30;;;12.70;73.70;;;;;;960202;147;27325;-75
2022/05/25 02:50:38;;;;;;;2.50;1.90;;;12.70;73.90;;;;;;961476;148;27335;-75
2022/05/25 02:53:05;;;;;;;1.80;1.70;;;12.60;74.00;;;;;;960859;148;27378;-75
2022/05/25 02:55:31;;;;;;;1.73;1.63;;;12.60;74.20;;;;;;961030;148;27260;-76
2022/05/25 02:57:59;;;;;;;2.47;1.90;;;12.60;74.20;;;;;;960854;148;27248;-76
2022/05/25 03:00:27;;;;;;;1.83;1.70;;;12.50;74.30;;;;;;960928;147;27360;-75
2022/05/25 03:02:56;;;;;;;4.83;1.50;;;12.50;74.50;;;;;;960836;148;27340;-77
2022/05/25 03:05:20;;;;;;;3.03;1.70;;;12.40;74.60;;;;;;960790;148;27854;-77
2022/05/25 03:07:47;;;;;;;2.13;1.90;;;12.40;74.80;;;;;;960517;148;27283;-77
2022/05/25 03:10:13;;;;;;;2.40;1.90;;;12.40;75.00;;;;;;961217;148;27284;-77
2022/05/25 03:12:40;;;;;;;1.80;1.70;;;12.30;75.10;;;;;;959908;147;27372;-77
2022/05/25 03:15:07;;;;;;;2.30;2.10;;;12.30;75.30;;;;;;959828;148;27775;-77
2022/05/25 03:17:33;;;;;;;1.87;1.77;;;12.30;75.40;;;;;;960436;148;27399;-77
2022/05/25 03:20:00;;;;;;;1.70;1.60;;;12.30;75.70;;;;;;960861;148;27680;-77
2022/05/25 03:22:26;;;;;;;1.73;1.63;;;12.20;75.70;;;;;;960761;148;27303;-77
2022/05/25 03:24:53;;;;;;;2.03;1.83;;;12.20;75.90;;;;;;961061;147;27298;-77
2022/05/25 03:27:20;;;;;;;2.83;1.60;;;12.10;75.90;;;;;;959617;148;27315;-77
2022/05/25 03:29:46;;;;;;;2.13;1.93;;;12.10;76.10;;;;;;961099;148;27319;-77
2022/05/25 03:32:13;;;;;;;1.67;1.57;;;12.10;76.40;;;;;;960109;148;27246;-77
2022/05/25 03:34:39;;;;;;;1.93;1.83;;;12.00;76.60;;;;;;961034;148;27289;-77
2022/05/25 03:37:06;;;;;;;1.83;1.73;;;12.00;76.90;;;;;;959849;148;27290;-77
2022/05/25 03:39:32;;;;;;;2.40;1.73;;;12.00;77.10;;;;;;960619;148;27741;-77
2022/05/25 03:41:59;;;;;;;2.40;1.57;;;11.90;77.20;;;;;;961849;148;27304;-77
2022/05/25 03:44:26;;;;;;;2.00;1.70;;;11.90;77.40;;;;;;960931;148;27264;-77
2022/05/25 03:46:52;;;;;;;2.17;1.97;;;11.90;77.50;;;;;;936975;149;27344;-77
2022/05/25 03:49:19;;;;;;;1.77;1.67;;;11.90;77.80;;;;;;937490;149;27419;-77
2022/05/25 03:51:45;;;;;;;1.90;1.57;;;11.80;78.00;;;;;;952160;149;27383;-77
2022/05/25 03:54:12;;;;;;;1.93;1.83;;;11.80;78.10;;;;;;961414;148;27388;-77
2022/05/25 03:56:39;;;;;;;2.20;2.00;;;11.80;78.60;;;;;;960499;148;27279;-77
2022/05/25 03:59:05;;;;;;;3.47;2.13;;;11.80;78.80;;;;;;961615;148;27281;-77
2022/05/25 04:01:32;;;;;;;3.07;1.97;;;11.80;78.90;;;;;;960723;148;27868;-77
2022/05/25 04:03:59;;;;;;;2.30;2.10;;;11.80;79.30;;;;;;960645;147;27315;-77
2022/05/25 04:06:25;;;;;;;2.80;2.37;;;11.80;79.40;;;;;;960739;148;27410;-77
2022/05/25 04:08:52;;;;;;;2.73;2.43;;;11.80;79.70;;;;;;961636;148;27260;-77
2022/05/25 04:11:18;;;;;;;1.90;1.80;;;11.80;79.90;;;;;;959675;148;27328;-77
2022/05/25 04:13:45;;;;;;;2.07;1.87;;;11.80;80.00;;;;;;961030;148;27365;-77
2022/05/25 04:16:11;;;;;;;2.40;2.20;;;11.90;80.30;;;;;;960323;148;27352;-77
2022/05/25 04:18:38;;;;;;;2.20;2.00;;;11.80;80.30;;;;;;960737;148;27341;-77
2022/05/25 04:21:04;;;;;;;2.40;2.20;;;11.90;80.70;;;;;;960798;148;27360;-76
2022/05/25 04:23:31;;;;;;;3.50;2.33;;;11.90;80.80;;;;;;960568;148;27303;-77
2022/05/25 04:25:58;;;;;;;2.70;2.30;;;11.90;81.10;;;;;;960542;148;27274;-77
2022/05/25 04:28:24;;;;;;;2.40;2.20;;;11.90;81.10;;;;;;960307;148;27284;-77
2022/05/25 04:30:51;;;;;;;2.23;2.00;;;12.00;81.40;;;;;;961942;148;27317;-77
2022/05/25 04:33:17;;;;;;;3.43;2.10;;;12.00;81.50;;;;;;961034;148;27443;-77
2022/05/25 04:35:44;;;;;;;3.17;2.00;;;12.00;81.70;;;;;;960692;148;27306;-77
2022/05/25 04:38:14;;;;;;;2.03;1.93;;;12.10;82.10;;;;;;961867;148;27349;-77
2022/05/25 04:40:40;;;;;;;3.30;2.20;;;12.10;82.30;;;;;;961468;148;27284;-77
2022/05/25 04:43:07;;;;;;;2.33;2.13;;;12.20;82.80;;;;;;959356;148;27319;-77
2022/05/25 04:45:33;;;;;;;4.13;2.40;;;12.30;83.20;;;;;;959807;148;27315;-77
2022/05/25 04:48:00;;;;;;;2.53;2.33;;;12.40;83.70;;;;;;960082;148;27449;-77
2022/05/25 04:50:26;;;;;;;2.80;2.10;;;12.50;84.60;;;;;;960220;148;27317;-77
2022/05/25 04:52:56;;;;;;;2.20;2.00;;;12.70;85.70;;;;;;962173;148;27268;-77
2022/05/25 04:58:04;;;;;;;3.40;2.57;;;13.40;89.80;;;;;;965216;148;27423;-78
2022/05/25 05:00:31;;;;;;;2.10;1.90;;;13.90;90.90;;;;;;964934;148;27334;-77
2022/05/25 05:02:57;;;;;;;1.85;1.75;;;14.50;91.70;;;;;;965056;148;27240;-77
2022/05/25 05:05:25;;;;;;;2.02;1.90;;;15.20;92.10;;;;;;964341;148;27294;-78
2022/05/25 05:07:51;;;;;;;2.10;1.90;;;16.00;92.10;;;;;;964302;148;27363;-78
2022/05/25 05:10:18;;;;;;;2.50;2.05;;;16.80;91.50;;;;;;964579;146;27362;-78
2022/05/25 05:12:44;;;;;;;1.90;1.62;;;17.70;90.60;;;;;;964283;148;27396;-78
2022/05/25 05:15:10;;;;;;;1.85;1.70;;;18.50;89.20;;;;;;963635;148;27344;-78
2022/05/25 05:17:37;;;;;;;2.60;1.60;;;19.40;87.00;;;;;;963700;148;27363;-78
2022/05/25 05:20:04;;;;;;;1.87;1.77;;;20.20;84.20;;;;;;965072;145;27299;-78
2022/05/25 05:22:30;;;;;;;1.70;1.60;;;21.10;81.70;;;;;;965404;148;27215;-78
2022/05/25 05:24:57;;;;;;;2.00;1.50;;;21.90;78.70;;;;;;964734;148;27408;-78
2022/05/25 05:27:23;;;;;;;1.70;1.60;;;22.70;76.00;;;;;;965076;148;27307;-78
2022/05/25 05:29:50;;;;;;;1.60;1.22;;;23.50;73.30;;;;;;965525;147;27226;-78
2022/05/25 05:32:17;;;;;;;1.60;1.50;;;24.30;71.00;;;;;;964379;148;27241;-78
2022/05/25 05:34:43;;;;;;;2.12;1.12;;;25.00;68.50;;;;;;964658;148;27355;-79
2022/05/25 05:37:10;;;;;;;2.52;1.20;;;25.70;66.70;;;;;;965265;148;27306;-78
2022/05/25 05:39:36;;;;;;;1.22;1.20;;;26.40;64.80;;;;;;964500;148;27335;-79
2022/05/25 05:42:06;;;;;;;1.40;1.30;;;27.00;63.20;;;;;;964958;148;28777;-78
2022/05/25 05:44:32;;;;;;;1.30;1.20;;;27.70;61.80;;;;;;964634;148;27282;-79
2022/05/25 05:46:59;;;;;;;2.85;1.47;;;28.30;60.20;;;;;;964104;148;27297;-78
2022/05/25 05:49:25;;;;;;;1.67;1.47;;;28.90;58.70;;;;;;964155;147;27318;-78
2022/05/25 05:51:52;;;;;;;1.70;1.52;;;29.40;57.50;;;;;;965413;146;27397;-78
2022/05/25 05:54:19;;;;;;;1.32;1.22;;;29.90;56.00;;;;;;959357;148;27383;-78
2022/05/25 05:56:45;;;;;;;1.35;1.25;;;30.30;55.00;;;;;;955111;147;27258;-79
2022/05/25 05:59:12;;;;;;;1.30;1.20;;;30.70;54.10;;;;;;954906;148;27250;-78
2022/05/25 06:01:38;;;;;;;2.02;1.20;;;31.10;53.20;;;;;;956114;149;27709;-78
2022/05/25 06:04:06;;;;;;;1.37;1.27;;;31.40;52.40;;;;;;955274;149;27426;-79
2022/05/25 06:06:32;;;;;;;1.25;1.15;;;31.60;51.90;;;;;;955517;149;27405;-79
2022/05/25 06:08:58;;;;;;;1.30;1.20;;;31.90;51.30;;;;;;954931;149;27289;-79
2022/05/25 06:11:25;;;;;;;2.10;1.20;;;32.20;50.80;;;;;;955718;148;27347;-79
2022/05/25 06:13:51;;;;;;;3.00;1.37;;;32.60;50.40;;;;;;955526;148;27329;-79
2022/05/25 06:21:47;;;;;;;2.37;1.10;;;33.80;49.00;;;;;;954493;149;27366;-79
2022/05/25 06:24:14;;;;;;;0.80;0.80;;;34.20;48.50;;;;;;953965;149;27252;-79
2022/05/25 06:26:41;;;;;;;1.27;1.10;;;34.60;47.60;;;;;;953737;149;26228;-79
2022/05/25 06:29:07;;;;;;;1.02;0.80;;;34.90;46.70;;;;;;954614;148;26184;-79
2022/05/25 06:31:34;;;;;;;1.82;1.17;;;35.30;45.60;;;;;;955233;149;26312;-79
2022/05/25 06:34:00;;;;;;;2.05;0.93;;;35.50;45.20;;;;;;955951;149;26245;-79
2022/05/25 06:36:27;;;;;;;1.57;0.98;;;35.80;44.60;;;;;;954599;149;27304;-79
2022/05/25 06:38:54;;;;;;;2.35;0.90;;;36.10;44.40;;;;;;955284;149;26158;-79
2022/05/25 06:41:20;;;;;;;1.27;1.10;;;36.30;43.90;;;;;;955641;149;26251;-79
2022/05/25 06:43:47;;;;;;;1.15;1.00;;;36.60;43.50;;;;;;956466;147;26299;-79
2022/05/25 06:46:13;;;;;;;1.57;1.07;;;36.90;43.30;;;;;;954436;149;27555;-79
2022/05/25 06:48:40;;;;;;;1.17;1.00;;;37.20;42.70;;;;;;954900;149;26172;-79
2022/05/25 06:51:12;;;;;;;1.05;0.93;;;37.60;42.20;;;;;;954937;149;26227;-79
2022/05/25 06:53:39;;;;;;;0.93;0.72;;;38.00;41.70;;;;;;955658;148;26300;-79
2022/05/25 06:56:06;;;;;;;1.57;0.93;;;38.30;41.30;;;;;;960720;148;27082;-80
2022/05/25 06:58:32;;;;;;;1.72;0.93;;;38.70;40.70;;;;;;960727;148;26741;-80
2022/05/25 07:00:59;;;;;;;1.00;0.70;;;39.00;40.60;;;;;;960852;148;26185;-80
2022/05/25 07:03:25;;;;;;;1.62;0.60;;;39.40;39.60;;;;;;961261;148;26519;-80
2022/05/25 07:05:52;;;;;;;1.20;0.57;;;39.70;38.90;;;;;;961578;148;26159;-78
2022/05/25 07:08:19;;;;;;;0.80;0.60;;;40.10;37.90;;;;;;961062;148;26242;-78
2022/05/25 07:10:48;;;;;;;1.80;0.45;;;40.30;36.80;;;;;;961591;148;26659;-78
2022/05/25 07:13:17;;;;;;;0.90;0.80;;;40.50;36.50;;;;;;960721;147;28600;-78
2022/05/25 07:15:44;;;;;;;1.47;0.70;;;40.50;36.20;;;;;;961349;148;26263;-78
2022/05/25 07:18:10;;;;;;;0.80;0.80;;;40.50;35.60;;;;;;961005;148;26313;-78
2022/05/25 07:20:37;;;;;;;0.80;0.80;;;40.60;35.10;;;;;;960818;148;26267;-78
2022/05/25 07:23:03;;;;;;;0.80;0.80;;;40.70;35.10;;;;;;939993;148;26823;-78
2022/05/25 07:25:30;;;;;;;0.85;0.62;;;40.80;35.50;;;;;;937215;148;26216;-78
2022/05/25 07:27:57;;;;;;;2.67;0.80;;;40.90;34.30;;;;;;939461;149;26570;-78
2022/05/25 07:30:23;;;;;;;0.88;0.68;;;40.90;34.00;;;;;;938610;148;26312;-78
2022/05/25 07:32:50;;;;;;;1.22;0.53;;;41.00;34.00;;;;;;937573;148;26274;-78
2022/05/25 07:35:16;;;;;;;0.85;0.45;;;41.10;33.70;;;;;;966503;145;26295;-78
2022/05/25 07:37:43;;;;;;;1.17;0.70;;;41.20;33.20;;;;;;951703;148;26321;-78
2022/05/25 07:40:18;;;;;;;2.45;0.60;;;41.30;33.10;;;;;;970885;146;26185;-78
2022/05/25 07:42:45;;;;;;;2.92;0.70;;;41.40;32.80;;;;;;945559;147;26261;-78
2022/05/25 07:45:12;;;;;;;0.62;0.53;;;41.60;32.60;;;;;;947202;147;26345;-78
2022/05/25 07:47:38;;;;;;;1.98;0.55;;;41.70;32.10;;;;;;954103;148;26381;-78
2022/05/25 07:50:05;;;;;;;0.93;0.50;;;41.90;31.50;;;;;;940227;148;26239;-78
2022/05/25 07:52:31;;;;;;;3.02;0.68;;;42.00;31.30;;;;;;964896;145;26217;-78
2022/05/25 07:54:58;;;;;;;0.82;0.50;;;42.10;30.80;;;;;;964465;145;26272;-78
2022/05/25 07:57:25;;;;;;;0.75;0.30;;;42.10;30.50;;;;;;954874;148;26264;-78
2022/05/25 07:59:51;;;;;;;1.07;0.45;;;42.20;30.10;;;;;;937514;148;26264;-78
2022/05/25 08:07:47;;;;;;;1.55;0.53;;;42.20;29.00;;;;;;960541;146;26248;-78
2022/05/25 08:10:16;;;;;;;0.65;0.50;;;42.10;28.90;;;;;;962896;148;26200;-78
2022/05/25 08:12:43;;;;;;;0.40;0.40;;;41.90;28.70;;;;;;963463;148;26308;-78
2022/05/25 08:15:09;;;;;;;0.95;0.25;;;41.80;28.80;;;;;;963583;148;26212;-78
2022/05/25 08:17:36;;;;;;;0.15;0.15;;;41.60;28.70;;;;;;963088;148;26188;-78
2022/05/25 08:20:02;;;;;;;0.98;0.55;;;41.60;28.60;;;;;;958122;148;26216;-78
2022/05/25 08:22:29;;;;;;;2.83;0.30;;;41.60;28.60;;;;;;958497;148;26313;-78
2022/05/25 08:24:56;;;;;;;1.07;0.98;;;41.70;28.60;;;;;;940350;149;26267;-78
2022/05/25 08:27:22;;;;;;;0.68;0.53;;;41.70;28.40;;;;;;963895;145;28378;-78
2022/05/25 08:29:49;;;;;;;4.75;1.77;;;41.80;28.20;;;;;;964247;145;26208;-78
2022/05/25 08:32:15;;;;;;;2.40;2.20;;;41.80;27.80;;;;;;963883;145;26219;-78
2022/05/25 08:34:43;;;;;;;0.88;0.70;;;41.90;28.00;;;;;;964598;145;26289;-78
2022/05/25 08:37:09;;;;;;;1.05;0.40;;;41.90;27.70;;;;;;964316;145;26264;-78
2022/05/25 08:39:35;;;;;;;0.62;0.40;;;42.00;27.50;;;;;;964487;145;26664;-78
2022/05/25 08:42:02;;;;;;;0.50;0.08;;;42.00;27.30;;;;;;964531;145;26359;-78
2022/05/25 08:44:28;;;;;;;0.60;0.20;;;41.90;27.10;;;;;;963221;145;26212;-78
2022/05/25 08:46:58;;;;;;;0.55;0.20;;;41.90;27.20;;;;;;966492;145;26212;-78
2022/05/25 08:49:24;;;;;;;0.95;0.28;;;42.00;27.30;;;;;;964420;145;26240;-78
2022/05/25 08:51:57;;;;;;;0.72;0.37;;;42.00;27.10;;;;;;963976;145;26286;-78
2022/05/25 08:54:20;;;;;;;0.28;0.28;;;42.00;26.60;;;;;;959535;146;26239;-78
2022/05/25 08:56:50;;;;;;;0.30;0.30;;;41.90;26.30;;;;;;941006;149;26267;-78
2022/05/25 08:59:16;;;;;;;0.50;0.50;;;41.70;26.40;;;;;;938709;150;26251;-78
2022/05/25 09:01:47;;;;;;;0.20;0.20;;;41.50;26.20;;;;;;959040;147;26248;-78
2022/05/25 09:04:16;;;;;;;1.05;0.40;;;41.30;26.40;;;;;;939406;149;26359;-78
2022/05/25 09:07:03;;;;;;;0.53;0.30;;;41.10;26.10;;;;;;926422;149;26326;-78
2022/05/25 09:09:39;;;;;;;0.40;0.40;;;41.00;26.40;;;;;;929680;150;26256;-78
2022/05/25 09:14:45;;;;;;;0.62;0.40;;;40.90;26.50;;;;;;967382;145;36096;-75
2022/05/25 09:17:14;;;;;;;0.37;0.30;;;40.80;26.40;;;;;;954646;148;26270;-74
2022/05/25 09:19:40;;;;;;;0.37;0.20;;;40.90;26.50;;;;;;956389;148;26380;-74
2022/05/25 09:22:08;;;;;;;0.62;0.30;;;40.90;25.90;;;;;;956177;148;26223;-75
2022/05/25 09:24:34;;;;;;;0.50;0.33;;;40.90;26.00;;;;;;954911;148;26519;-75
2022/05/25 09:27:00;;;;;;;0.20;0.20;;;40.80;26.10;;;;;;957871;148;26165;-75
2022/05/25 09:29:27;;;;;;;0.68;0.35;;;40.80;26.20;;;;;;954892;148;26247;-75
2022/05/25 09:31:59;;;;;;;0.55;0.30;;;40.70;26.20;;;;;;953832;148;26329;-75
2022/05/25 09:34:43;;;;;;;0.95;0.30;;;40.70;26.20;;;;;;955799;148;26315;-75
2022/05/25 09:37:16;;;;;;;1.92;0.30;;;40.80;26.00;;;;;;956661;148;26171;-75
2022/05/25 09:39:45;;;;;;;0.72;0.35;;;40.70;26.00;;;;;;949491;148;26344;-75
2022/05/25 09:42:14;;;;;;;1.17;0.20;;;40.70;26.20;;;;;;956147;148;26206;-75
2022/05/25 09:44:41;;;;;;;0.28;0.28;;;40.70;26.00;;;;;;956556;148;26218;-75
2022/05/25 09:47:07;;;;;;;0.37;0.25;;;40.60;25.80;;;;;;953640;148;26195;-75
2022/05/25 09:49:47;;;;;;;1.05;0.30;;;40.60;25.60;;;;;;956118;148;26247;-76
2022/05/25 09:52:12;;;;;;;0.35;0.30;;;40.40;25.40;;;;;;947308;148;26407;-75
2022/05/25 09:54:42;;;;;;;0.30;0.15;;;40.20;25.20;;;;;;940444;151;26309;-75
2022/05/25 09:57:17;;;;;;;0.62;0.30;;;39.90;25.40;;;;;;940710;151;26240;-75
2022/05/25 09:59:44;;;;;;;0.82;0.17;;;39.70;25.60;;;;;;941100;151;26366;-75
2022/05/25 10:02:44;;;;;;;0.70;0.33;;;39.30;25.60;;;;;;939729;151;26272;-75
2022/05/25 10:05:16;;;;;;;0.68;0.30;;;39.00;25.40;;;;;;941538;151;26296;-76
2022/05/25 10:07:49;;;;;;;1.42;0.70;;;38.60;25.70;;;;;;939174;151;26267;-75
2022/05/25 10:10:15;;;;;;;2.12;0.78;;;38.20;25.80;;;;;;939833;151;26230;-75
2022/05/25 10:12:44;;;;;;;0.70;0.60;;;37.90;26.00;;;;;;940304;151;26313;-75
2022/05/25 10:15:11;;;;;;;1.30;0.68;;;37.50;25.90;;;;;;941982;151;26300;-75
2022/05/25 10:17:38;;;;;;;0.55;0.50;;;37.10;25.80;;;;;;931688;151;27442;-75
2022/05/25 10:20:04;;;;;;;1.07;0.40;;;36.70;25.60;;;;;;951714;148;27348;-75
2022/05/25 10:22:37;;;;;;;0.42;0.30;;;36.20;25.80;;;;;;929623;151;27320;-75
2022/05/25 10:25:10;;;;;;;1.40;0.45;;;35.70;25.90;;;;;;946806;148;27448;-75
2022/05/25 10:27:39;;;;;;;0.90;0.68;;;35.20;26.10;;;;;;946342;149;27415;-75
2022/05/25 10:38:44;;;;;;;1.15;0.47;;;32.90;27.10;;;;;;930697;151;27499;-74
2022/05/25 10:44:11;;;;;;;0.85;0.55;;;32.00;27.50;;;;;;925693;151;27384;-74
2022/05/25 10:46:37;;;;;;;0.30;0.30;;;31.50;27.80;;;;;;931202;151;27812;-75
2022/05/25 10:49:10;;;;;;;0.78;0.33;;;31.10;28.10;;;;;;930569;151;27409;-75
2022/05/25 10:51:48;;;;;;;0.53;0.20;;;30.70;28.50;;;;;;930468;151;27401;-74
2022/05/25 10:57:08;;;;;;;1.32;0.40;;;30.10;29.10;;;;;;946732;149;27385;-75
2022/05/25 10:59:56;;;;;;;1.07;0.50;;;29.90;29.40;;;;;;942308;148;27344;-74
2022/05/25 11:02:29;;;;;;;1.27;0.40;;;29.70;29.40;;;;;;947139;148;27360;-76
2022/05/25 11:04:58;;;;;;;0.37;0.35;;;29.50;29.50;;;;;;942994;151;27334;-75
2022/05/25 11:07:33;;;;;;;1.10;0.47;;;29.30;29.60;;;;;;915580;148;27347;-76
2022/05/25 11:10:15;;;;;;;1.70;0.50;;;29.10;29.70;;;;;;931189;151;27800;-77
2022/05/25 11:13:00;;;;;;;1.98;0.30;;;29.00;29.80;;;;;;947340;148;27366;-76
2022/05/25 11:15:35;;;;;;;2.77;0.40;;;28.80;29.90;;;;;;947136;149;27391;-75
2022/05/25 11:18:23;;;;;;;0.57;0.30;;;28.60;30.00;;;;;;928391;151;27359;-76
2022/05/25 11:20:59;;;;;;;1.00;0.40;;;28.40;30.50;;;;;;947444;148;27353;-76
2022/05/25 11:23:43;;;;;;;0.80;0.50;;;28.30;30.60;;;;;;937563;150;27371;-75
2022/05/25 11:26:43;;;;;;;0.47;0.40;;;28.20;30.80;;;;;;946835;148;27457;-76
2022/05/25 11:29:13;;;;;;;0.23;0.23;;;28.10;31.10;;;;;;947043;148;27364;-75
2022/05/25 11:32:04;;;;;;;0.35;0.35;;;28.10;31.20;;;;;;944679;148;27336;-76
2022/05/25 11:34:41;;;;;;;0.75;0.42;;;28.00;31.10;;;;;;946360;149;28093;-76
2022/05/25 11:37:27;;;;;;;0.20;0.20;;;28.00;31.10;;;;;;941938;149;27859;-76
2022/05/25 11:40:21;;;;;;;0.88;0.20;;;27.90;31.10;;;;;;946045;148;27305;-76
2022/05/25 11:43:03;;;;;;;0.35;0.35;;;27.90;31.20;;;;;;948545;148;27302;-75
2022/05/25 11:46:00;;;;;;;0.40;0.40;;;27.80;31.20;;;;;;926291;152;27529;-75
2022/05/25 11:48:29;;;;;;;0.35;0.17;;;27.80;31.10;;;;;;948864;148;27357;-75
2022/05/25 11:51:14;;;;;;;1.60;0.28;;;27.70;31.30;;;;;;947021;149;27350;-75
2022/05/25 11:54:01;;;;;;;0.90;0.42;;;27.70;31.40;;;;;;905348;149;27297;-75
2022/05/25 11:56:45;;;;;;;0.20;0.20;;;27.60;31.30;;;;;;946819;148;27331;-75
2022/05/25 11:59:15;;;;;;;1.32;0.70;;;27.60;31.50;;;;;;946908;149;27308;-76
2022/05/25 12:01:44;;;;;;;0.72;0.15;;;27.60;31.50;;;;;;930430;151;27491;-75
2022/05/25 12:04:16;;;;;;;0.47;0.47;;;27.50;31.40;;;;;;930928;150;27417;-75
2022/05/25 12:07:01;;;;;;;0.82;0.30;;;27.40;31.40;;;;;;948006;149;27289;-75
2022/05/25 12:09:33;;;;;;;0.50;0.50;;;27.30;31.50;;;;;;947596;149;27411;-76
2022/05/25 12:12:27;;;;;;;0.68;0.30;;;27.30;31.70;;;;;;935761;149;27458;-75
2022/05/25 12:15:06;;;;;;;0.47;0.28;;;27.20;32.00;;;;;;909116;153;27468;-75
2022/05/25 12:17:50;;;;;;;0.28;0.28;;;27.20;31.90;;;;;;940688;148;27343;-75
2022/05/25 12:20:17;;;;;;;0.47;0.40;;;27.10;32.00;;;;;;952308;148;27389;-75
2022/05/25 12:22:43;;;;;;;0.40;0.25;;;27.10;32.20;;;;;;952101;148;27385;-75
2022/05/25 12:25:10;;;;;;;1.30;0.20;;;27.20;32.30;;;;;;951432;148;27832;-75
2022/05/25 12:27:40;;;;;;;2.50;0.50;;;27.10;32.40;;;;;;950548;148;27315;-75
2022/05/25 12:30:09;;;;;;;0.28;0.20;;;27.10;32.50;;;;;;949692;151;27394;-75
2022/05/25 12:32:38;;;;;;;1.05;0.37;;;27.10;32.50;;;;;;955799;148;27258;-75
2022/05/25 12:38:25;;;;;;;0.45;0.30;;;27.10;32.70;;;;;;953531;147;27400;-75
2022/05/25 12:40:51;;;;;;;0.40;0.20;;;27.20;32.60;;;;;;936384;150;27433;-75
2022/05/25 12:43:39;;;;;;;0.40;0.35;;;27.20;32.70;;;;;;935579;150;27485;-75
2022/05/25 12:48:53;;;;;;;1.20;0.40;;;27.40;32.60;;;;;;953278;148;27351;-75
2022/05/25 12:51:43;;;;;;;0.35;0.35;;;27.40;32.60;;;;;;951792;148;27329;-75
2022/05/25 12:54:23;;;;;;;0.45;0.40;;;27.40;32.40;;;;;;935390;150;27372;-75
2022/05/25 12:56:49;;;;;;;0.65;0.30;;;27.40;32.50;;;;;;952453;148;27340;-75
2022/05/25 12:59:34;;;;;;;2.05;0.60;;;27.30;32.70;;;;;;937361;150;27321;-75
2022/05/25 13:02:19;;;;;;;0.80;0.50;;;27.30;32.80;;;;;;952136;147;27368;-75
2022/05/25 13:04:54;;;;;;;0.35;0.30;;;27.20;32.90;;;;;;952842;148;27376;-75
2022/05/25 13:07:36;;;;;;;0.30;0.30;;;27.20;32.60;;;;;;934619;151;27424;-75
2022/05/25 13:10:05;;;;;;;0.47;0.47;;;27.10;32.60;;;;;;953922;148;27405;-75
2022/05/25 13:12:44;;;;;;;0.53;0.33;;;27.10;32.80;;;;;;954086;147;27309;-75
2022/05/25 13:15:19;;;;;;;0.60;0.57;;;27.10;33.00;;;;;;947569;148;27462;-75
2022/05/25 13:17:53;;;;;;;0.55;0.55;;;27.00;33.00;;;;;;903484;156;27458;-75
2022/05/25 13:20:27;;;;;;;0.60;0.45;;;27.00;32.90;;;;;;918018;152;27350;-75
2022/05/25 13:22:59;;;;;;;0.25;0.20;;;27.00;32.70;;;;;;924869;152;27995;-75
2022/05/25 13:25:26;;;;;;;2.22;0.80;;;27.00;32.80;;;;;;926833;153;27411;-75
2022/05/25 13:28:13;;;;;;;0.60;0.60;;;27.00;33.00;;;;;;926901;153;27383;-75
2022/05/25 13:30:40;;;;;;;0.78;0.72;;;26.90;32.70;;;;;;926906;153;27435;-75
2022/05/25 13:33:25;;;;;;;1.07;0.95;;;26.90;32.70;;;;;;930410;153;27328;-75
2022/05/25 13:36:16;;;;;;;1.65;0.75;;;27.00;32.90;;;;;;924554;152;27303;-76
2022/05/25 13:38:48;;;;;;;1.35;0.98;;;27.00;32.80;;;;;;928158;153;27371;-75
2022/05/25 13:41:20;;;;;;;0.95;0.95;;;27.00;32.60;;;;;;908853;155;27470;-76
2022/05/25 13:43:50;;;;;;;0.90;0.90;;;27.00;32.50;;;;;;909053;155;27430;-75
2022/05/25 13:46:44;;;;;;;0.80;0.80;;;27.00;32.50;;;;;;923903;152;27332;-75